createdAt,value
2019-05-23T17:59:42.585Z,50.910683
2019-05-23T18:00:42.036Z,50.910686
2019-05-23T18:01:42.071Z,50.910717
2019-05-23T18:02:42.007Z,50.910721
2019-05-23T18:03:42.009Z,50.910732
2019-05-23T18:04:41.987Z,50.910706
2019-05-23T18:05:41.985Z,50.910740
2019-05-23T18:06:41.977Z,50.910736
2019-05-23T18:07:41.966Z,50.910709
2019-05-23T18:08:41.978Z,50.910728
2019-05-23T18:09:41.955Z,50.910713
2019-05-23T18:10:45.014Z,50.910698
2019-05-23T18:11:42.966Z,50.910690
2019-05-23T18:12:41.963Z,50.910671
2019-05-23T18:13:41.927Z,50.910679
2019-05-23T18:14:41.918Z,50.910671
2019-05-23T18:15:41.947Z,50.910686
2019-05-23T18:16:41.903Z,50.910690
2019-05-23T18:17:41.892Z,50.910660
2019-05-23T18:18:41.885Z,50.910660
2019-05-23T18:19:41.872Z,50.910671
2019-05-23T18:34:18.403Z,50.910812
2019-05-23T18:35:18.393Z,50.910812
2019-05-23T18:36:19.436Z,50.910770
2019-05-23T18:37:18.384Z,50.910751
2019-05-23T18:38:18.395Z,50.910774
2019-05-23T18:39:18.385Z,50.910736
2019-05-23T18:40:18.361Z,50.910706
2019-05-23T18:41:18.350Z,50.910709
2019-05-23T18:42:18.338Z,50.910702
2019-05-23T18:43:19.345Z,50.910686
2019-05-23T18:44:18.353Z,50.910683
2019-05-23T18:45:18.340Z,50.910717
2019-05-23T18:46:18.319Z,50.910709
2019-05-23T18:47:18.309Z,50.910717
2019-05-23T18:48:18.298Z,50.910690
2019-05-23T18:49:18.318Z,50.910690
2019-05-23T18:50:18.283Z,50.910679
2019-05-23T18:51:18.277Z,50.910667
2019-05-23T18:52:18.270Z,50.910702
2019-05-23T18:53:18.266Z,50.910713
2019-05-23T18:54:18.257Z,50.910721
2019-05-23T18:55:18.246Z,50.910698
2019-05-23T18:56:18.242Z,50.910664
2019-05-23T18:57:18.229Z,50.910690
2019-05-23T18:58:20.101Z,50.910690
2019-05-23T18:59:19.213Z,50.910694
2019-05-23T19:00:18.304Z,50.910698
2019-05-23T19:01:18.211Z,50.910690
2019-05-23T19:02:18.210Z,50.910694
2019-05-23T19:03:18.188Z,50.910717
2019-05-23T19:04:25.643Z,50.910732
2019-05-23T19:05:19.177Z,50.910748
2019-05-23T19:06:18.160Z,50.910713
2019-05-23T19:07:18.149Z,50.910717
2019-05-23T19:08:18.180Z,50.910694
2019-05-23T19:09:18.199Z,50.910660
2019-05-23T19:10:18.133Z,50.910664
2019-05-23T19:11:21.327Z,50.910614
2019-05-23T19:12:19.232Z,50.910622
2019-05-23T19:13:19.030Z,50.910690
2019-05-23T19:14:18.669Z,50.910675
2019-05-23T19:15:18.133Z,50.910717
2019-05-23T19:16:18.098Z,50.910744
2019-05-23T19:17:18.082Z,50.910736
2019-05-23T19:18:18.084Z,50.910751
2019-05-23T19:19:19.362Z,50.910732
2019-05-23T19:20:18.059Z,50.910736
2019-05-23T19:21:18.088Z,50.910706
2019-05-23T19:22:18.040Z,50.910679
2019-05-23T19:23:18.038Z,50.910667
2019-05-23T19:24:18.029Z,50.910645
2019-05-23T19:25:18.026Z,50.910641
2019-05-23T19:26:18.029Z,50.910656
2019-05-23T19:27:18.006Z,50.910671
2019-05-23T19:28:18.003Z,50.910675
2019-05-23T19:29:17.993Z,50.910686
2019-05-23T19:30:17.982Z,50.910721
2019-05-23T19:31:17.970Z,50.910744
2019-05-23T19:32:17.967Z,50.910717
2019-05-23T19:33:18.005Z,50.910660
2019-05-23T19:34:17.953Z,50.910660
2019-05-23T19:35:17.942Z,50.910679
2019-05-23T19:36:17.940Z,50.910686
2019-05-23T19:37:17.998Z,50.910679
2019-05-23T19:38:17.959Z,50.910694
2019-05-23T19:39:17.914Z,50.910683
2019-05-23T19:40:17.907Z,50.910732
2019-05-23T19:41:17.913Z,50.910721
2019-05-23T19:42:18.056Z,50.910755
2019-05-23T19:43:18.279Z,50.910736
2019-05-23T19:44:18.161Z,50.910721
2019-05-23T19:45:18.014Z,50.910778
2019-05-23T19:46:17.867Z,50.910854
2019-05-23T19:47:17.853Z,50.910877
2019-05-23T19:48:17.856Z,50.910793
2019-05-23T19:49:17.838Z,50.910740
2019-05-23T19:50:17.908Z,50.910732
2019-05-23T19:51:17.824Z,50.910732
2019-05-23T19:52:18.813Z,50.910732
2019-05-23T19:53:21.038Z,50.910702
2019-05-23T19:54:18.815Z,50.910717
2019-05-23T19:55:17.793Z,50.910786
2019-05-23T19:56:18.060Z,50.910828
2019-05-23T19:57:17.779Z,50.910770
2019-05-23T19:58:17.774Z,50.910755
2019-05-23T19:59:20.797Z,50.910789
2019-05-23T20:00:18.798Z,50.910839
2019-05-23T20:01:17.749Z,50.910789
2019-05-23T20:02:17.745Z,50.910728
2019-05-23T20:03:17.736Z,50.910744
2019-05-23T20:04:17.733Z,50.910732
2019-05-23T20:05:17.726Z,50.910717
2019-05-23T20:06:17.730Z,50.910675
2019-05-23T20:07:17.708Z,50.910725
2019-05-23T20:08:17.710Z,50.910786
2019-05-23T20:09:17.698Z,50.910789
2019-05-23T20:10:17.686Z,50.910789
2019-05-23T20:11:17.679Z,50.910786
2019-05-23T20:12:17.678Z,50.910763
2019-05-23T20:13:18.772Z,50.910759
2019-05-23T20:14:18.674Z,50.910786
2019-05-23T20:15:17.651Z,50.910782
2019-05-23T20:16:17.657Z,50.910789
2019-05-23T20:17:17.641Z,50.910866
2019-05-23T20:18:17.631Z,50.910839
2019-05-23T20:19:17.627Z,50.910801
2019-05-23T20:20:17.632Z,50.910751
2019-05-23T20:21:17.605Z,50.910789
2019-05-23T20:22:17.585Z,50.910831
2019-05-23T20:23:18.595Z,50.910847
2019-05-23T20:24:17.588Z,50.910877
2019-05-23T20:25:17.573Z,50.910892
2019-05-23T20:26:17.567Z,50.910797
2019-05-23T20:27:17.559Z,50.910782
2019-05-23T20:28:17.557Z,50.910736
2019-05-23T20:29:17.579Z,50.910767
2019-05-23T20:30:17.539Z,50.910744
2019-05-23T20:31:17.533Z,50.910816
2019-05-23T20:32:17.552Z,50.910858
2019-05-23T20:33:17.515Z,50.910805
2019-05-23T20:34:17.519Z,50.910801
2019-05-23T20:35:17.515Z,50.910801
2019-05-23T20:36:17.503Z,50.910805
2019-05-23T20:37:17.490Z,50.910793
2019-05-23T20:38:17.477Z,50.910778
2019-05-23T20:39:17.469Z,50.910763
2019-05-23T20:40:17.485Z,50.910767
2019-05-23T20:41:17.462Z,50.910786
2019-05-23T20:42:17.446Z,50.910767
2019-05-23T20:43:17.439Z,50.910759
2019-05-23T20:44:17.432Z,50.910751
2019-05-23T20:45:17.426Z,50.910763
2019-05-23T20:46:17.412Z,50.910759
2019-05-23T20:47:17.412Z,50.910770
2019-05-23T20:48:17.396Z,50.910782
2019-05-23T20:49:17.390Z,50.910774
2019-05-23T20:50:17.390Z,50.910774
2019-05-23T20:51:17.376Z,50.910767
2019-05-23T20:52:17.372Z,50.910751
2019-05-23T20:53:17.362Z,50.910736
2019-05-23T20:54:17.350Z,50.910736
2019-05-23T20:55:17.351Z,50.910736
2019-05-23T20:56:17.343Z,50.910736
2019-05-23T20:57:17.346Z,50.910717
2019-05-23T20:58:17.341Z,50.910702
2019-05-23T20:59:17.371Z,50.910690
